EJU63MP LEIB-LIRN
Flight info
| Callsign | EJU63MP |
|---|---|
| Flight time | N/A |
| Altitude | 36000 |
| Route | KABRE DCT ELTAN DCT MORSS DCT BAVON DCT ORKUM DCT ELSAG DCT ALG DCT EKPOD DCT LABOM DCT ENSOT DCT PEVIR M725 SOR |
| Aircraft | A319/M-SDE2E3FGIJ1RWXYZ/LB1 |
Departure
| Time | N/A |
|---|---|
| Airport | Ibiza Airport (LEIB) |
Arrival
| Time | 2026-04-27 17:14 |
|---|---|
| Airport | Naples International Airport (LIRN) |
| Time | Latitude | Longitude | Altitude | Speed | Heading |
|---|---|---|---|---|---|
| 2026-04-27 16:43 | 40.49813 | 11.86549 | 36112 ft | 438 kts | 86° |
| 2026-04-27 16:44 | 40.50095 | 11.94553 | 36110 ft | 439 kts | 86° |
| 2026-04-27 16:44 | 40.50371 | 12.02554 | 36113 ft | 438 kts | 86° |
| 2026-04-27 16:45 | 40.50650 | 12.10560 | 36111 ft | 438 kts | 86° |
| 2026-04-27 16:45 | 40.50927 | 12.18560 | 36108 ft | 439 kts | 86° |
| 2026-04-27 16:46 | 40.51210 | 12.26567 | 36110 ft | 439 kts | 86° |
| 2026-04-27 16:46 | 40.51553 | 12.34567 | 36111 ft | 439 kts | 86° |
| 2026-04-27 16:47 | 40.51912 | 12.42570 | 36111 ft | 439 kts | 86° |
| 2026-04-27 16:47 | 40.52246 | 12.50571 | 36115 ft | 438 kts | 86° |
| 2026-04-27 16:48 | 40.52563 | 12.58575 | 36112 ft | 438 kts | 86° |
| 2026-04-27 16:48 | 40.52882 | 12.66577 | 36111 ft | 438 kts | 86° |
| 2026-04-27 16:49 | 40.53358 | 12.78583 | 36106 ft | 438 kts | 86° |
| 2026-04-27 16:49 | 40.53661 | 12.86591 | 35674 ft | 442 kts | 86° |
| 2026-04-27 16:50 | 40.53813 | 12.90640 | 35007 ft | 443 kts | 86° |
| 2026-04-27 16:50 | 40.53962 | 12.94676 | 34502 ft | 440 kts | 86° |
| 2026-04-27 16:50 | 40.54109 | 12.98629 | 33966 ft | 437 kts | 86° |
| 2026-04-27 16:50 | 40.54256 | 13.02602 | 33456 ft | 433 kts | 86° |
| 2026-04-27 16:51 | 40.54399 | 13.06539 | 32974 ft | 428 kts | 86° |
| 2026-04-27 16:51 | 40.54535 | 13.10428 | 32497 ft | 424 kts | 86° |
| 2026-04-27 16:51 | 40.54670 | 13.14281 | 32019 ft | 420 kts | 86° |
| 2026-04-27 16:51 | 40.54805 | 13.18102 | 31557 ft | 416 kts | 86° |
| 2026-04-27 16:52 | 40.54935 | 13.21885 | 31098 ft | 412 kts | 86° |
| 2026-04-27 16:52 | 40.55064 | 13.25634 | 30654 ft | 409 kts | 86° |
| 2026-04-27 16:52 | 40.55191 | 13.29351 | 30214 ft | 405 kts | 86° |
| 2026-04-27 16:52 | 40.55318 | 13.33040 | 29739 ft | 402 kts | 86° |
| 2026-04-27 16:53 | 40.55443 | 13.36683 | 29327 ft | 397 kts | 86° |
| 2026-04-27 16:53 | 40.55566 | 13.40288 | 28915 ft | 393 kts | 86° |
| 2026-04-27 16:53 | 40.55668 | 13.43339 | 28573 ft | 390 kts | 86° |
| 2026-04-27 16:53 | 40.55781 | 13.46880 | 28175 ft | 386 kts | 86° |
| 2026-04-27 16:54 | 40.55891 | 13.50397 | 27770 ft | 383 kts | 86° |
| 2026-04-27 16:54 | 40.56000 | 13.53881 | 27367 ft | 380 kts | 86° |
| 2026-04-27 16:54 | 40.56107 | 13.57332 | 26966 ft | 376 kts | 86° |
| 2026-04-27 16:54 | 40.56213 | 13.60755 | 26553 ft | 373 kts | 86° |
| 2026-04-27 16:55 | 40.56317 | 13.64150 | 26144 ft | 370 kts | 86° |
| 2026-04-27 16:55 | 40.56420 | 13.67520 | 25724 ft | 368 kts | 86° |
| 2026-04-27 16:55 | 40.56523 | 13.70887 | 25297 ft | 371 kts | 86° |
| 2026-04-27 16:55 | 40.56629 | 13.74289 | 24855 ft | 372 kts | 86° |
| 2026-04-27 16:56 | 40.56733 | 13.77685 | 24405 ft | 371 kts | 86° |
| 2026-04-27 16:56 | 40.56832 | 13.81073 | 23958 ft | 370 kts | 86° |
| 2026-04-27 16:56 | 40.56929 | 13.84453 | 23471 ft | 370 kts | 86° |
| 2026-04-27 16:56 | 40.57023 | 13.87796 | 23003 ft | 367 kts | 86° |
| 2026-04-27 16:57 | 40.57116 | 13.91159 | 22569 ft | 364 kts | 86° |
| 2026-04-27 16:57 | 40.57210 | 13.94480 | 22137 ft | 362 kts | 86° |
| 2026-04-27 16:57 | 40.57304 | 13.97772 | 21714 ft | 359 kts | 86° |
| 2026-04-27 16:57 | 40.57397 | 14.01047 | 21293 ft | 357 kts | 87° |
| 2026-04-27 16:58 | 40.57464 | 14.03456 | 20968 ft | 355 kts | 87° |
| 2026-04-27 16:58 | 40.57578 | 14.06673 | 20332 ft | 350 kts | 82° |
| 2026-04-27 16:58 | 40.58216 | 14.09722 | 19755 ft | 346 kts | 62° |
| 2026-04-27 16:58 | 40.59546 | 14.12315 | 19367 ft | 340 kts | 46° |
| 2026-04-27 16:59 | 40.61116 | 14.14643 | 18970 ft | 339 kts | 46° |
| 2026-04-27 16:59 | 40.62687 | 14.16950 | 18588 ft | 337 kts | 45° |
| 2026-04-27 16:59 | 40.64245 | 14.19231 | 17964 ft | 334 kts | 46° |
| 2026-04-27 16:59 | 40.65792 | 14.21499 | 17332 ft | 331 kts | 46° |
| 2026-04-27 17:00 | 40.68335 | 14.25240 | 16146 ft | 332 kts | 46° |
| 2026-04-27 17:00 | 40.70418 | 14.28310 | 14985 ft | 338 kts | 47° |
| 2026-04-27 17:00 | 40.71980 | 14.30617 | 14228 ft | 338 kts | 47° |
| 2026-04-27 17:01 | 40.73560 | 14.32950 | 13230 ft | 343 kts | 47° |
| 2026-04-27 17:01 | 40.75128 | 14.35263 | 12353 ft | 342 kts | 47° |
| 2026-04-27 17:01 | 40.76732 | 14.37633 | 11462 ft | 341 kts | 47° |
| 2026-04-27 17:01 | 40.78305 | 14.39959 | 10601 ft | 339 kts | 47° |
| 2026-04-27 17:02 | 40.79867 | 14.42272 | 9771 ft | 336 kts | 47° |
| 2026-04-27 17:02 | 40.81417 | 14.44566 | 8864 ft | 333 kts | 48° |
| 2026-04-27 17:02 | 40.82927 | 14.46800 | 8012 ft | 329 kts | 48° |
| 2026-04-27 17:02 | 40.84415 | 14.49006 | 7643 ft | 311 kts | 48° |
| 2026-04-27 17:03 | 40.85796 | 14.51059 | 7532 ft | 289 kts | 49° |
| 2026-04-27 17:03 | 40.87098 | 14.52998 | 7500 ft | 273 kts | 49° |
| 2026-04-27 17:03 | 40.88318 | 14.54816 | 7504 ft | 256 kts | 49° |
| 2026-04-27 17:03 | 40.89459 | 14.56517 | 7497 ft | 239 kts | 49° |
| 2026-04-27 17:04 | 40.90498 | 14.58156 | 7511 ft | 229 kts | 55° |
| 2026-04-27 17:04 | 40.91335 | 14.59929 | 7516 ft | 227 kts | 59° |
| 2026-04-27 17:04 | 40.92165 | 14.61706 | 7506 ft | 227 kts | 58° |
| 2026-04-27 17:04 | 40.92997 | 14.63476 | 7505 ft | 226 kts | 58° |
| 2026-04-27 17:05 | 40.93826 | 14.65246 | 7513 ft | 227 kts | 58° |
| 2026-04-27 17:05 | 40.94654 | 14.67011 | 7514 ft | 227 kts | 58° |
| 2026-04-27 17:05 | 40.95487 | 14.68789 | 7501 ft | 227 kts | 58° |
| 2026-04-27 17:05 | 40.96036 | 14.69963 | 7499 ft | 226 kts | 58° |
| 2026-04-27 17:06 | 40.97591 | 14.71759 | 7507 ft | 227 kts | 18° |
| 2026-04-27 17:06 | 40.99143 | 14.71856 | 7443 ft | 227 kts | 345° |
| 2026-04-27 17:06 | 41.00519 | 14.70940 | 7335 ft | 218 kts | 327° |
| 2026-04-27 17:06 | 41.01782 | 14.69896 | 7213 ft | 210 kts | 327° |
| 2026-04-27 17:07 | 41.03012 | 14.68882 | 7087 ft | 207 kts | 328° |
| 2026-04-27 17:07 | 41.04199 | 14.67884 | 6966 ft | 203 kts | 323° |
| 2026-04-27 17:07 | 41.05032 | 14.66423 | 6875 ft | 192 kts | 289° |
| 2026-04-27 17:07 | 41.05128 | 14.64704 | 6662 ft | 186 kts | 257° |
| 2026-04-27 17:08 | 41.04582 | 14.63155 | 6447 ft | 189 kts | 237° |
| 2026-04-27 17:08 | 41.03887 | 14.61680 | 6176 ft | 189 kts | 237° |
| 2026-04-27 17:08 | 41.03196 | 14.60204 | 5904 ft | 189 kts | 237° |
| 2026-04-27 17:08 | 41.02506 | 14.58726 | 5629 ft | 192 kts | 237° |
| 2026-04-27 17:09 | 41.01795 | 14.57205 | 5351 ft | 195 kts | 237° |
| 2026-04-27 17:09 | 41.01082 | 14.55679 | 5070 ft | 195 kts | 237° |
| 2026-04-27 17:09 | 41.00367 | 14.54147 | 4796 ft | 199 kts | 237° |
| 2026-04-27 17:09 | 40.99621 | 14.52553 | 4481 ft | 205 kts | 237° |
| 2026-04-27 17:10 | 40.98875 | 14.50957 | 4180 ft | 203 kts | 237° |
| 2026-04-27 17:10 | 40.98135 | 14.49377 | 3882 ft | 201 kts | 237° |
| 2026-04-27 17:10 | 40.97402 | 14.47811 | 3592 ft | 200 kts | 238° |
| 2026-04-27 17:10 | 40.96674 | 14.46257 | 3299 ft | 198 kts | 237° |
| 2026-04-27 17:11 | 40.95956 | 14.44725 | 3011 ft | 192 kts | 238° |
| 2026-04-27 17:11 | 40.94622 | 14.41881 | 2472 ft | 174 kts | 238° |
| 2026-04-27 17:11 | 40.93995 | 14.40544 | 2222 ft | 168 kts | 238° |
| 2026-04-27 17:12 | 40.92813 | 14.38029 | 1738 ft | 155 kts | 239° |
| 2026-04-27 17:12 | 40.92257 | 14.36846 | 1525 ft | 146 kts | 239° |
| 2026-04-27 17:12 | 40.91744 | 14.35754 | 1319 ft | 134 kts | 238° |
| 2026-04-27 17:13 | 40.91258 | 14.34721 | 1132 ft | 131 kts | 237° |
| 2026-04-27 17:13 | 40.90780 | 14.33703 | 945 ft | 130 kts | 236° |
| 2026-04-27 17:13 | 40.90308 | 14.32700 | 750 ft | 130 kts | 235° |
| 2026-04-27 17:13 | 40.89826 | 14.31678 | 565 ft | 131 kts | 235° |
| 2026-04-27 17:14 | 40.89347 | 14.30640 | 365 ft | 132 kts | 236° |
| 2026-04-27 17:14 | 40.88862 | 14.29621 | 264 ft | 129 kts | 234° |
| 2026-04-27 17:14 | 40.88458 | 14.28776 | 275 ft | 86 kts | 238° |
| 2026-04-27 17:14 | 40.88280 | 14.28459 | 282 ft | 20 kts | 206° |
| 2026-04-27 17:15 | 40.88167 | 14.28376 | 285 ft | 17 kts | 209° |
| 2026-04-27 17:15 | 40.88091 | 14.28322 | 287 ft | 7 kts | 207° |
| 2026-04-27 17:15 | 40.88081 | 14.28315 | 292 ft | 1 kts | 208° |
| 2026-04-27 17:15 | 40.88070 | 14.28297 | 288 ft | 6 kts | 240° |
| 2026-04-27 17:16 | 40.88054 | 14.28208 | 294 ft | 12 kts | 240° |
| 2026-04-27 17:16 | 40.88001 | 14.28130 | 292 ft | 11 kts | 202° |
| 2026-04-27 17:16 | 40.87938 | 14.28083 | 297 ft | 9 kts | 221° |
| 2026-04-27 17:16 | 40.87903 | 14.28035 | 297 ft | 5 kts | 216° |
| 2026-04-27 17:17 | 40.87869 | 14.28055 | 299 ft | 7 kts | 139° |
| 2026-04-27 17:17 | 40.87835 | 14.28092 | 295 ft | 0 kts | 141° |